createdAt,value
2018-03-07T00:03:20.923Z,5.31
2018-03-07T00:08:21.880Z,5.28
2018-03-07T00:13:22.815Z,5.27
2018-03-07T00:18:23.756Z,5.18
2018-03-07T00:23:24.700Z,5.16
2018-03-07T00:28:25.629Z,5.17
2018-03-07T00:33:26.565Z,5.12
2018-03-07T00:38:27.500Z,5.03
2018-03-07T00:43:28.445Z,5.10
2018-03-07T00:48:29.382Z,5.21
2018-03-07T00:53:30.317Z,5.17
2018-03-07T00:58:31.270Z,5.16
2018-03-07T01:03:32.208Z,5.17
2018-03-07T01:08:33.172Z,5.21
2018-03-07T01:13:34.102Z,5.11
2018-03-07T01:18:35.056Z,5.13
2018-03-07T01:23:35.964Z,5.16
2018-03-07T01:28:36.898Z,5.11
2018-03-07T01:33:37.833Z,5.05
2018-03-07T01:38:38.769Z,5.00
2018-03-07T01:43:39.733Z,5.12
2018-03-07T01:48:40.666Z,5.13
2018-03-07T01:53:41.592Z,5.08
2018-03-07T01:58:42.532Z,5.02
2018-03-07T02:03:43.444Z,5.00
2018-03-07T02:08:44.408Z,5.00
2018-03-07T02:13:45.331Z,4.89
2018-03-07T02:18:46.281Z,4.94
2018-03-07T02:23:47.221Z,4.90
2018-03-07T02:28:48.177Z,4.88
2018-03-07T02:33:49.121Z,4.83
2018-03-07T02:38:50.065Z,4.91
2018-03-07T02:43:50.993Z,4.88
2018-03-07T02:48:51.941Z,4.81
2018-03-07T02:53:52.900Z,4.91
2018-03-07T02:58:53.798Z,4.84
2018-03-07T03:03:54.739Z,4.80
2018-03-07T03:08:55.694Z,4.81
2018-03-07T03:13:56.627Z,4.67
2018-03-07T03:18:57.574Z,4.83
2018-03-07T03:23:58.495Z,4.88
2018-03-07T03:28:59.437Z,4.85
2018-03-07T03:34:00.368Z,4.86
2018-03-07T03:39:01.292Z,4.85
2018-03-07T03:44:02.219Z,4.69
2018-03-07T03:49:03.136Z,4.83
2018-03-07T03:54:04.055Z,4.81
2018-03-07T03:59:05.008Z,4.80
2018-03-07T04:04:05.916Z,4.81
2018-03-07T04:09:06.876Z,4.77
2018-03-07T04:14:07.808Z,4.62
2018-03-07T04:19:08.745Z,4.73
2018-03-07T04:24:09.676Z,4.81
2018-03-07T04:29:10.609Z,4.76
2018-03-07T04:34:11.567Z,4.82
2018-03-07T04:39:12.518Z,4.92
2018-03-07T04:44:13.457Z,4.90
2018-03-07T04:49:14.368Z,4.82
2018-03-07T04:54:15.295Z,4.91
2018-03-07T04:59:16.202Z,4.90
2018-03-07T05:04:17.138Z,4.77
2018-03-07T05:09:18.100Z,4.81
2018-03-07T05:14:19.024Z,4.86
2018-03-07T05:19:19.942Z,4.71
2018-03-07T05:24:20.919Z,4.54
2018-03-07T05:29:21.811Z,4.88
2018-03-07T05:34:22.736Z,4.97
2018-03-07T05:39:23.673Z,5.03
2018-03-07T05:44:24.610Z,5.02
2018-03-07T05:49:25.546Z,5.05
2018-03-07T05:54:26.484Z,5.08
2018-03-07T05:59:27.425Z,5.08
2018-03-07T06:04:28.342Z,5.05
2018-03-07T06:09:29.320Z,5.01
2018-03-07T06:14:30.266Z,5.12
2018-03-07T06:19:31.214Z,4.85
2018-03-07T06:24:32.168Z,4.96
2018-03-07T06:29:33.111Z,5.09
2018-03-07T06:34:34.020Z,5.12
2018-03-07T06:39:34.959Z,5.17
2018-03-07T06:44:35.872Z,4.96
2018-03-07T06:49:36.782Z,5.10
2018-03-07T06:54:37.714Z,5.23
2018-03-07T06:59:38.648Z,4.89
2018-03-07T07:04:39.576Z,4.99
2018-03-07T07:09:40.548Z,5.17
2018-03-07T07:14:41.498Z,5.22
2018-03-07T07:19:42.463Z,5.20
2018-03-07T07:24:43.406Z,5.01
2018-03-07T07:29:44.327Z,5.25
2018-03-07T07:34:45.270Z,5.03
2018-03-07T07:39:46.217Z,5.26
2018-03-07T07:44:47.164Z,5.34
2018-03-07T07:49:48.105Z,5.10
2018-03-07T07:54:49.044Z,5.40
2018-03-07T07:59:49.984Z,5.15
2018-03-07T08:04:50.922Z,5.38
2018-03-07T08:09:51.888Z,5.57
2018-03-07T08:14:52.808Z,5.53
2018-03-07T08:19:53.746Z,5.57
2018-03-07T08:24:54.667Z,5.69
2018-03-07T08:29:55.597Z,5.49
2018-03-07T08:34:56.542Z,5.56
2018-03-07T08:39:57.496Z,4.94
2018-03-07T08:44:58.428Z,4.99
2018-03-07T08:49:59.356Z,5.40
2018-03-07T08:55:00.285Z,5.52
2018-03-07T09:00:01.223Z,5.57
2018-03-07T09:05:02.161Z,5.58
2018-03-07T09:10:09.986Z,5.75
2018-03-07T09:15:10.904Z,5.82
2018-03-07T09:20:11.823Z,5.95
2018-03-07T09:25:12.755Z,5.98
2018-03-07T09:30:13.690Z,6.04
2018-03-07T09:35:14.632Z,6.02
2018-03-07T09:40:15.597Z,6.01
2018-03-07T09:45:16.512Z,6.07
2018-03-07T09:50:17.442Z,5.98
2018-03-07T09:55:18.423Z,5.89
2018-03-07T10:00:19.350Z,6.10
2018-03-07T10:05:20.287Z,6.13
2018-03-07T10:10:21.246Z,6.13
2018-03-07T10:15:22.207Z,6.01
2018-03-07T10:20:23.153Z,6.15
2018-03-07T10:25:24.088Z,5.95
2018-03-07T10:30:25.051Z,5.87
2018-03-07T10:35:25.988Z,5.94
2018-03-07T10:40:26.976Z,5.78
2018-03-07T10:45:27.889Z,5.97
2018-03-07T10:50:28.813Z,5.86
2018-03-07T10:55:29.744Z,5.91
2018-03-07T11:00:36.781Z,5.90
2018-03-07T11:05:37.710Z,5.95
2018-03-07T11:10:38.705Z,5.58
2018-03-07T11:15:39.652Z,6.09
2018-03-07T11:20:40.685Z,6.13
2018-03-07T11:25:41.699Z,6.20
2018-03-07T11:30:42.631Z,6.29
2018-03-07T11:35:43.555Z,6.34
2018-03-07T11:40:44.502Z,6.37
2018-03-07T11:45:45.465Z,6.23
2018-03-07T11:50:46.417Z,6.20
2018-03-07T11:55:47.366Z,5.97
2018-03-07T12:00:48.776Z,6.04
2018-03-07T12:05:49.729Z,6.10
2018-03-07T12:10:50.701Z,5.73
2018-03-07T12:15:51.656Z,5.78
2018-03-07T12:20:52.592Z,6.04
2018-03-07T12:25:53.538Z,6.00
2018-03-07T12:30:55.287Z,6.06
2018-03-07T12:35:57.159Z,5.72
2018-03-07T12:40:58.254Z,5.79
2018-03-07T12:45:59.219Z,5.92
2018-03-07T12:51:01.370Z,6.00
2018-03-07T12:56:03.294Z,5.96
2018-03-07T13:01:05.337Z,5.84
2018-03-07T13:06:07.183Z,5.61
2018-03-07T13:11:08.873Z,5.61
2018-03-07T13:16:10.265Z,5.53
2018-03-07T13:21:12.014Z,5.62
2018-03-07T13:26:13.136Z,5.60
2018-03-07T13:31:14.096Z,5.73
2018-03-07T13:36:15.137Z,5.68
2018-03-07T13:41:16.094Z,5.77
2018-03-07T13:46:17.026Z,5.72
2018-03-07T13:51:17.996Z,5.76
2018-03-07T13:56:19.001Z,5.66
2018-03-07T14:01:19.938Z,5.59
2018-03-07T14:06:20.972Z,5.60
2018-03-07T14:11:21.922Z,5.64
2018-03-07T14:16:22.853Z,5.62
2018-03-07T14:21:23.831Z,5.57
2018-03-07T14:26:24.806Z,5.42
2018-03-07T14:31:25.762Z,5.48
2018-03-07T14:36:26.719Z,5.50
2018-03-07T14:41:27.672Z,5.56
2018-03-07T14:46:28.624Z,5.57
2018-03-07T14:51:29.574Z,5.55
2018-03-07T14:56:30.529Z,5.53
2018-03-07T15:01:31.461Z,5.46
2018-03-07T15:06:32.996Z,5.22
2018-03-07T15:11:34.099Z,5.39
2018-03-07T15:16:35.076Z,5.35
2018-03-07T15:21:36.028Z,5.44
2018-03-07T15:26:37.655Z,5.39
2018-03-07T15:31:39.533Z,5.41
2018-03-07T15:36:40.577Z,5.39
2018-03-07T15:41:41.535Z,5.33
2018-03-07T15:46:42.457Z,5.19
2018-03-07T15:51:43.380Z,5.34
2018-03-07T15:56:44.324Z,5.38
2018-03-07T16:01:45.285Z,5.33
2018-03-07T16:06:46.254Z,5.38
2018-03-07T16:11:47.619Z,5.37
2018-03-07T16:16:48.587Z,5.28
2018-03-07T16:21:49.531Z,5.35
2018-03-07T16:26:50.490Z,5.33
2018-03-07T16:31:51.453Z,5.38
2018-03-07T16:36:52.444Z,5.35
2018-03-07T16:41:54.338Z,5.27
2018-03-07T16:46:55.314Z,5.23
2018-03-07T16:51:56.266Z,5.23
2018-03-07T16:56:57.221Z,5.12
2018-03-07T17:01:58.210Z,5.09
2018-03-07T17:06:59.177Z,5.14
2018-03-07T17:12:00.187Z,5.02
2018-03-07T17:17:01.169Z,4.94
2018-03-07T17:22:02.217Z,4.90
2018-03-07T17:27:03.181Z,4.92
2018-03-07T17:32:04.153Z,5.00
2018-03-07T17:37:05.125Z,5.03
2018-03-07T17:42:06.151Z,5.05
2018-03-07T17:47:07.174Z,5.05
2018-03-07T17:52:08.148Z,4.97
2018-03-07T17:57:09.103Z,4.93
2018-03-07T18:02:10.076Z,5.01
2018-03-07T18:07:11.015Z,4.94
2018-03-07T18:12:12.008Z,4.97
2018-03-07T18:17:12.973Z,4.94
2018-03-07T18:22:13.959Z,4.98
2018-03-07T18:27:14.924Z,4.72
2018-03-07T18:32:15.898Z,4.88
2018-03-07T18:37:16.895Z,4.87
2018-03-07T18:42:17.931Z,4.24
2018-03-07T18:47:18.912Z,4.76
2018-03-07T18:52:19.914Z,4.89
2018-03-07T18:57:20.891Z,4.93
2018-03-07T19:02:21.851Z,4.89
2018-03-07T19:24:07.035Z,4.87
2018-03-07T19:29:08.075Z,4.91
2018-03-07T19:34:09.051Z,4.87
2018-03-07T19:39:10.038Z,4.87
2018-03-07T19:44:11.031Z,4.92
2018-03-07T19:49:12.046Z,4.80
2018-03-07T19:54:13.024Z,4.82
2018-03-07T19:59:14.010Z,4.57
2018-03-07T20:04:15.005Z,4.82
2018-03-07T20:09:16.036Z,4.87
2018-03-07T20:14:17.037Z,4.83
2018-03-07T20:19:18.025Z,4.88
2018-03-07T20:24:18.990Z,4.89
2018-03-07T20:29:20.940Z,4.85
2018-03-07T20:34:21.931Z,4.74
2018-03-07T20:39:22.918Z,4.74
2018-03-07T20:44:23.925Z,4.75
2018-03-07T20:49:24.996Z,4.90
2018-03-07T20:54:25.971Z,4.94
2018-03-07T20:59:26.948Z,4.94
2018-03-07T21:04:27.913Z,4.87
2018-03-07T21:09:28.891Z,4.89
2018-03-07T21:14:29.905Z,4.89
2018-03-07T21:19:30.896Z,4.83
2018-03-07T21:24:31.944Z,4.85
2018-03-07T21:29:32.875Z,4.81
2018-03-07T21:34:33.833Z,4.76
2018-03-07T21:39:34.787Z,4.91
2018-03-07T21:44:35.777Z,4.98
2018-03-07T21:49:36.770Z,4.88
2018-03-07T21:54:37.715Z,4.84
2018-03-07T21:59:38.688Z,4.87
2018-03-07T22:04:39.625Z,4.89
2018-03-07T22:09:40.578Z,4.86
2018-03-07T22:14:41.578Z,4.82
2018-03-07T22:19:42.537Z,4.92
2018-03-07T22:24:43.501Z,4.89
2018-03-07T22:29:44.456Z,4.89
2018-03-07T22:34:45.412Z,4.88
2018-03-07T22:39:46.359Z,4.77
2018-03-07T22:44:47.357Z,4.83
2018-03-07T22:49:48.278Z,4.56
2018-03-07T22:54:49.242Z,4.87
2018-03-07T22:59:50.187Z,4.86
2018-03-07T23:04:51.134Z,4.90
2018-03-07T23:09:52.085Z,4.93
2018-03-07T23:14:53.032Z,4.92
2018-03-07T23:19:54.017Z,4.94
2018-03-07T23:24:54.949Z,4.88
2018-03-07T23:29:55.882Z,4.84
2018-03-07T23:34:56.818Z,4.86
2018-03-07T23:39:57.754Z,4.81
2018-03-07T23:44:58.726Z,4.81
2018-03-07T23:49:59.683Z,4.79
2018-03-07T23:55:00.616Z,4.80
